Time;durP1;ratioP1;P1;durP2;ratioP2;P2;SDS_P1;SDS_P2;PMS_P1;PMS_P2;Temp;Humidity;BMP_temperature;BMP_pressure;BME280_temperature;BME280_humidity;BME280_pressure;Samples;Min_cycle;Max_cycle;Signal;HPM_P1;HPM_P2
2022/09/08 00:00:04;;;;;;;15.58;9.18;;;;;;;;;;1714347;82;21101;-66
2022/09/08 00:02:34;;;;;;;18.30;9.13;;;;;;;;;;1708092;82;21036;-65
2022/09/08 00:05:00;;;;;;;16.87;8.35;;;;;;;;;;1721578;82;21071;-65
2022/09/08 00:07:28;;;;;;;13.32;8.35;;;;;;;;;;1706412;82;21028;-66
2022/09/08 00:09:54;;;;;;;13.88;8.48;;;;;;;;;;1703024;82;21013;-66
2022/09/08 00:12:21;;;;;;;13.30;8.45;;;;;;;;;;1720908;82;21091;-67
2022/09/08 00:14:47;;;;;;;15.70;9.25;;;;;;;;;;1660233;85;21075;-66
2022/09/08 00:17:14;;;;;;;16.87;9.35;;;;;;;;;;1704880;82;21070;-66
2022/09/08 00:19:40;;;;;;;16.67;9.03;;;;;;;;;;1663589;83;21051;-66
2022/09/08 00:22:07;;;;;;;16.30;8.85;;;;;;;;;;1640017;85;21098;-66
2022/09/08 00:24:33;;;;;;;13.38;8.75;;;;;;;;;;1659982;85;21099;-66
2022/09/08 00:27:00;;;;;;;15.68;8.63;;;;;;;;;;1708156;82;21036;-66
2022/09/08 00:29:26;;;;;;;16.48;9.43;;;;;;;;;;1721962;82;21060;-66
2022/09/08 00:31:52;;;;;;;16.42;9.05;;;;;;;;;;1714617;82;21071;-66
2022/09/08 00:34:18;;;;;;;17.40;9.90;;;;;;;;;;1722509;82;21064;-66
2022/09/08 00:36:44;;;;;;;17.15;9.33;;;;;;;;;;1721897;82;20993;-67
2022/09/08 00:39:10;;;;;;;14.10;8.58;;;;;;;;;;1721629;82;21551;-67
2022/09/08 00:41:37;;;;;;;15.35;9.18;;;;;;;;;;1725499;81;21072;-66
2022/09/08 00:44:23;;;;;;;15.10;8.63;;;;;;;;;;1720802;83;21028;-66
2022/09/08 00:46:51;;;;;;;17.80;9.60;;;;;;;;;;1719643;82;21067;-65
2022/09/08 00:49:18;;;;;;;18.15;9.35;;;;;;;;;;1727767;83;21039;-65
2022/09/08 00:51:45;;;;;;;13.45;8.40;;;;;;;;;;1729985;83;21049;-65
2022/09/08 00:54:11;;;;;;;18.50;8.93;;;;;;;;;;1730132;83;21051;-65
2022/09/08 00:56:38;;;;;;;19.05;9.33;;;;;;;;;;1716160;82;20988;-65
2022/09/08 00:59:04;;;;;;;16.73;8.83;;;;;;;;;;1701079;82;21165;-65
2022/09/08 01:04:20;;;;;;;16.12;9.08;;;;;;;;;;1678444;80;21175;-67
2022/09/08 01:14:52;;;;;;;14.93;9.00;;;;;;;;;;1643683;86;21072;-69
2022/09/08 01:17:19;;;;;;;16.42;9.98;;;;;;;;;;1617690;86;21104;-69
2022/09/08 01:19:46;;;;;;;19.60;9.50;;;;;;;;;;1646445;86;21121;-69
2022/09/08 01:22:20;;;;;;;15.40;9.35;;;;;;;;;;1657583;86;21067;-67
2022/09/08 01:24:51;;;;;;;16.57;10.03;;;;;;;;;;1714861;83;21007;-68
2022/09/08 01:27:23;;;;;;;16.67;9.65;;;;;;;;;;1690518;83;21230;-67
2022/09/08 01:29:51;;;;;;;18.52;10.38;;;;;;;;;;1699132;83;21075;-67
2022/09/08 01:32:17;;;;;;;16.27;9.38;;;;;;;;;;1691814;83;21531;-67
2022/09/08 01:34:44;;;;;;;17.37;10.23;;;;;;;;;;1687888;83;21062;-67
2022/09/08 01:37:10;;;;;;;16.75;9.48;;;;;;;;;;1634285;88;21109;-67
2022/09/08 01:39:37;;;;;;;17.27;10.00;;;;;;;;;;1606712;89;21142;-67
2022/09/08 01:42:04;;;;;;;17.95;9.45;;;;;;;;;;1632761;86;21062;-67
2022/09/08 01:44:32;;;;;;;18.50;10.08;;;;;;;;;;1625970;86;21058;-67
2022/09/08 01:46:59;;;;;;;18.60;9.80;;;;;;;;;;1708096;83;21041;-67
2022/09/08 01:49:25;;;;;;;15.25;9.18;;;;;;;;;;1696980;83;22361;-68
2022/09/08 01:51:51;;;;;;;17.50;10.48;;;;;;;;;;1721047;83;21059;-68
2022/09/08 01:54:17;;;;;;;16.07;9.95;;;;;;;;;;1720230;83;21088;-68
2022/09/08 01:56:44;;;;;;;17.35;10.25;;;;;;;;;;1703436;83;21665;-68
2022/09/08 01:59:10;;;;;;;21.02;10.90;;;;;;;;;;1706953;83;21449;-68
2022/09/08 02:01:36;;;;;;;18.05;10.72;;;;;;;;;;1649951;85;21587;-68
2022/09/08 02:04:03;;;;;;;20.55;11.48;;;;;;;;;;1701630;83;21109;-68
2022/09/08 02:06:30;;;;;;;20.00;11.57;;;;;;;;;;1695507;84;21066;-68
2022/09/08 02:08:58;;;;;;;21.50;11.78;;;;;;;;;;1748355;82;21086;-68
2022/09/08 02:11:24;;;;;;;23.65;12.50;;;;;;;;;;1736635;82;21071;-68
2022/09/08 02:13:50;;;;;;;23.30;11.88;;;;;;;;;;1730262;82;21522;-68
2022/09/08 02:16:18;;;;;;;19.65;10.98;;;;;;;;;;1740924;82;21089;-68
2022/09/08 02:18:44;;;;;;;17.73;10.28;;;;;;;;;;1749115;82;21062;-68
2022/09/08 02:21:12;;;;;;;16.73;11.08;;;;;;;;;;1742596;82;21463;-68
2022/09/08 02:23:39;;;;;;;19.95;11.05;;;;;;;;;;1748228;82;21035;-68
2022/09/08 02:26:06;;;;;;;20.12;11.25;;;;;;;;;;1708482;83;21129;-68
2022/09/08 02:28:32;;;;;;;19.75;10.78;;;;;;;;;;1704599;83;21073;-68
2022/09/08 02:30:59;;;;;;;19.10;10.80;;;;;;;;;;1700777;83;21090;-68
2022/09/08 02:33:26;;;;;;;17.82;10.35;;;;;;;;;;1719441;83;21052;-68
2022/09/08 02:35:53;;;;;;;18.57;10.75;;;;;;;;;;1732072;81;20975;-68
2022/09/08 02:38:20;;;;;;;23.38;11.90;;;;;;;;;;1749744;81;22062;-68
2022/09/08 02:40:46;;;;;;;18.15;10.88;;;;;;;;;;1748668;81;20990;-68
2022/09/08 02:43:12;;;;;;;17.48;11.18;;;;;;;;;;1757255;81;21693;-68
2022/09/08 02:45:39;;;;;;;21.50;10.80;;;;;;;;;;1708860;83;21024;-68
2022/09/08 02:48:06;;;;;;;20.55;11.38;;;;;;;;;;1712848;83;21067;-68
2022/09/08 02:50:33;;;;;;;19.62;12.10;;;;;;;;;;1721967;82;21031;-68
2022/09/08 02:52:59;;;;;;;18.92;10.32;;;;;;;;;;1745403;82;21035;-68
2022/09/08 02:55:26;;;;;;;17.73;10.58;;;;;;;;;;1744915;82;21089;-68
2022/09/08 02:57:52;;;;;;;23.20;12.10;;;;;;;;;;1718722;82;21056;-68
2022/09/08 03:00:18;;;;;;;19.12;10.55;;;;;;;;;;1701148;82;21065;-68
2022/09/08 03:02:45;;;;;;;19.70;11.18;;;;;;;;;;1740649;82;21054;-68
2022/09/08 03:05:12;;;;;;;19.87;10.93;;;;;;;;;;1747011;82;21051;-67
2022/09/08 03:07:39;;;;;;;18.25;11.48;;;;;;;;;;1689798;85;21534;-67
2022/09/08 03:10:06;;;;;;;20.45;11.38;;;;;;;;;;1714102;82;21032;-68
2022/09/08 03:12:33;;;;;;;19.57;11.43;;;;;;;;;;1720690;82;20992;-68
2022/09/08 03:14:59;;;;;;;19.00;11.05;;;;;;;;;;1717210;83;21610;-67
2022/09/08 03:17:26;;;;;;;21.05;10.58;;;;;;;;;;1719670;82;21528;-67
2022/09/08 03:19:54;;;;;;;22.50;11.63;;;;;;;;;;1741687;82;21133;-68
2022/09/08 03:22:20;;;;;;;18.92;11.12;;;;;;;;;;1741030;82;21058;-68
2022/09/08 03:24:46;;;;;;;19.50;11.10;;;;;;;;;;1739114;82;21008;-68
2022/09/08 03:27:13;;;;;;;20.40;10.80;;;;;;;;;;1733986;82;21035;-68
2022/09/08 03:29:40;;;;;;;23.05;11.70;;;;;;;;;;1745100;82;21023;-68
2022/09/08 03:32:06;;;;;;;20.12;11.00;;;;;;;;;;1734002;82;21060;-68
2022/09/08 03:34:32;;;;;;;18.45;11.00;;;;;;;;;;1706340;83;21115;-68
2022/09/08 03:36:58;;;;;;;21.25;11.18;;;;;;;;;;1694229;82;21771;-68
2022/09/08 03:39:25;;;;;;;18.80;11.45;;;;;;;;;;1737250;82;21051;-68
2022/09/08 03:41:50;;;;;;;20.95;10.78;;;;;;;;;;1740940;82;21034;-68
2022/09/08 03:44:16;;;;;;;22.62;10.95;;;;;;;;;;1746712;82;21530;-68
2022/09/08 03:46:43;;;;;;;20.85;11.50;;;;;;;;;;1746496;82;21018;-68
2022/09/08 03:49:08;;;;;;;17.55;10.58;;;;;;;;;;1719739;82;21027;-68
2022/09/08 03:51:35;;;;;;;17.45;10.82;;;;;;;;;;1719607;82;21113;-68
2022/09/08 03:56:48;;;;;;;19.62;10.80;;;;;;;;;;1737230;82;21046;-68
2022/09/08 03:59:14;;;;;;;24.20;10.50;;;;;;;;;;1741686;82;21092;-68
2022/09/08 04:01:41;;;;;;;23.67;10.65;;;;;;;;;;1739349;82;20995;-68
2022/09/08 04:06:58;;;;;;;28.05;11.75;;;;;;;;;;1799909;78;22861;-64
2022/09/08 04:09:24;;;;;;;23.35;11.88;;;;;;;;;;1763359;80;21051;-64
2022/09/08 04:11:50;;;;;;;25.37;11.15;;;;;;;;;;1776722;80;20980;-64
2022/09/08 04:14:16;;;;;;;22.82;11.35;;;;;;;;;;1766708;80;21095;-64
2022/09/08 04:16:43;;;;;;;39.13;12.98;;;;;;;;;;1738426;82;21048;-63
2022/09/08 04:19:10;;;;;;;95.15;17.00;;;;;;;;;;1747352;81;21089;-64
2022/09/08 04:21:36;;;;;;;74.90;16.37;;;;;;;;;;1754626;81;21007;-64
2022/09/08 04:24:03;;;;;;;53.42;14.65;;;;;;;;;;1729586;81;21054;-64
2022/09/08 04:26:29;;;;;;;35.80;12.25;;;;;;;;;;1721579;83;21096;-64
2022/09/08 04:28:56;;;;;;;26.55;12.60;;;;;;;;;;1723194;81;21042;-64
2022/09/08 04:31:22;;;;;;;21.37;10.40;;;;;;;;;;1727637;82;21022;-63
2022/09/08 04:33:48;;;;;;;17.73;9.70;;;;;;;;;;1728304;82;21574;-64
2022/09/08 04:36:15;;;;;;;20.80;10.82;;;;;;;;;;1728398;82;21531;-64
2022/09/08 04:38:41;;;;;;;20.00;9.98;;;;;;;;;;1722179;81;21797;-66
2022/09/08 04:41:09;;;;;;;19.67;10.13;;;;;;;;;;1720188;81;21068;-64
2022/09/08 04:43:36;;;;;;;20.27;11.03;;;;;;;;;;1722310;81;21072;-64
2022/09/08 04:46:04;;;;;;;23.12;11.28;;;;;;;;;;1726987;82;21500;-64
2022/09/08 04:48:31;;;;;;;17.15;10.35;;;;;;;;;;1721033;81;21017;-64
2022/09/08 04:50:58;;;;;;;18.95;10.50;;;;;;;;;;1727396;81;21107;-65
2022/09/08 04:53:25;;;;;;;20.80;9.73;;;;;;;;;;1738022;81;21118;-68
2022/09/08 04:55:52;;;;;;;19.25;9.38;;;;;;;;;;1715913;81;21619;-67
2022/09/08 04:58:19;;;;;;;14.20;7.55;;;;;;;;;;1728659;81;21009;-68
2022/09/08 05:00:45;;;;;;;15.03;8.70;;;;;;;;;;1732051;81;21061;-68
2022/09/08 05:03:14;;;;;;;17.60;9.75;;;;;;;;;;1729425;81;21582;-67
2022/09/08 05:05:40;;;;;;;18.90;8.88;;;;;;;;;;1726634;81;21079;-68
2022/09/08 05:08:06;;;;;;;24.05;9.28;;;;;;;;;;1686205;84;21059;-68
2022/09/08 05:10:33;;;;;;;20.37;8.93;;;;;;;;;;1697184;83;21403;-68
2022/09/08 05:12:59;;;;;;;22.42;9.90;;;;;;;;;;1689840;82;21125;-67
2022/09/08 05:15:27;;;;;;;16.42;8.20;;;;;;;;;;1682193;84;21096;-68
2022/09/08 05:17:53;;;;;;;16.15;8.23;;;;;;;;;;1690940;84;21044;-67
2022/09/08 05:20:19;;;;;;;17.60;8.28;;;;;;;;;;1692019;84;21599;-67
2022/09/08 05:22:45;;;;;;;19.55;8.00;;;;;;;;;;1691777;83;21116;-67
2022/09/08 05:25:12;;;;;;;16.25;8.45;;;;;;;;;;1687460;83;21066;-67
2022/09/08 05:27:38;;;;;;;14.40;7.25;;;;;;;;;;1692212;84;21598;-66
2022/09/08 05:30:05;;;;;;;16.00;6.90;;;;;;;;;;1692209;83;20996;-67
2022/09/08 05:32:31;;;;;;;10.28;5.70;;;;;;;;;;1678950;83;21019;-66
2022/09/08 05:34:57;;;;;;;14.18;5.85;;;;;;;;;;1647822;83;21031;-66
2022/09/08 05:37:30;;;;;;;9.53;5.25;;;;;;;;;;1684166;83;21069;-66
2022/09/08 05:39:56;;;;;;;13.38;5.20;;;;;;;;;;1698018;83;21042;-67
2022/09/08 05:42:22;;;;;;;12.58;5.22;;;;;;;;;;1692010;83;21076;-68
2022/09/08 05:44:48;;;;;;;13.38;5.10;;;;;;;;;;1686180;85;21062;-67
2022/09/08 05:47:14;;;;;;;10.88;4.70;;;;;;;;;;1687610;84;21032;-67
2022/09/08 05:49:40;;;;;;;15.80;5.30;;;;;;;;;;1686855;83;21546;-67
2022/09/08 05:52:07;;;;;;;16.30;5.25;;;;;;;;;;1694727;83;21004;-66
2022/09/08 05:54:34;;;;;;;12.65;4.30;;;;;;;;;;1689819;85;21095;-67
2022/09/08 05:57:01;;;;;;;15.20;6.08;;;;;;;;;;1692056;83;21077;-67
2022/09/08 05:59:27;;;;;;;15.85;4.97;;;;;;;;;;1661433;83;21033;-67
2022/09/08 06:01:53;;;;;;;10.53;5.33;;;;;;;;;;1690752;83;21112;-67
2022/09/08 06:04:20;;;;;;;9.35;4.55;;;;;;;;;;1687295;85;21077;-67
2022/09/08 06:06:46;;;;;;;13.65;4.58;;;;;;;;;;1712058;82;21093;-67
2022/09/08 06:09:14;;;;;;;8.80;4.33;;;;;;;;;;1716194;82;21017;-66
2022/09/08 06:11:42;;;;;;;6.67;3.27;;;;;;;;;;1712647;82;21054;-67
2022/09/08 06:14:10;;;;;;;8.13;3.60;;;;;;;;;;1711912;82;21081;-67
2022/09/08 06:16:36;;;;;;;7.70;3.37;;;;;;;;;;1719816;82;21047;-69
2022/09/08 06:19:03;;;;;;;6.65;3.27;;;;;;;;;;1700252;82;21065;-69
2022/09/08 06:21:30;;;;;;;7.97;3.50;;;;;;;;;;1715097;82;21065;-69
2022/09/08 06:23:57;;;;;;;10.25;3.47;;;;;;;;;;1714206;83;21075;-68
2022/09/08 06:26:26;;;;;;;6.00;3.33;;;;;;;;;;1717637;82;21143;-69
2022/09/08 06:29:00;;;;;;;7.12;3.40;;;;;;;;;;1720845;83;21534;-69
2022/09/08 06:31:34;;;;;;;8.13;3.40;;;;;;;;;;1723265;83;21048;-69
2022/09/08 06:34:03;;;;;;;7.90;3.20;;;;;;;;;;1719605;83;21041;-69
2022/09/08 06:36:32;;;;;;;5.45;3.10;;;;;;;;;;1710655;82;21056;-69
2022/09/08 06:39:00;;;;;;;7.28;3.25;;;;;;;;;;1705237;84;21037;-69
2022/09/08 06:41:28;;;;;;;6.75;3.37;;;;;;;;;;1716185;83;21017;-68
2022/09/08 06:43:55;;;;;;;6.58;3.17;;;;;;;;;;1680716;84;21075;-69
2022/09/08 06:46:23;;;;;;;11.65;3.58;;;;;;;;;;1670436;86;21533;-68
2022/09/08 06:48:51;;;;;;;9.33;4.15;;;;;;;;;;1713450;82;21083;-69
2022/09/08 06:51:24;;;;;;;11.75;4.17;;;;;;;;;;1708537;83;21003;-68
2022/09/08 06:53:50;;;;;;;;;;;;;;;;;;1716620;83;21029;-69
2022/09/08 06:56:18;;;;;;;8.58;4.10;;;;;;;;;;1716651;83;20433;-72
2022/09/08 06:58:46;;;;;;;6.80;4.10;;;;;;;;;;1710197;82;21049;-68
2022/09/08 07:01:20;;;;;;;9.78;4.33;;;;;;;;;;1709746;84;21378;-69
2022/09/08 07:03:48;;;;;;;7.33;3.90;;;;;;;;;;1716826;82;21102;-69
2022/09/08 07:06:16;;;;;;;7.08;3.90;;;;;;;;;;1698495;82;21643;-68
2022/09/08 07:08:47;;;;;;;8.40;3.67;;;;;;;;;;1718217;83;21096;-69
2022/09/08 07:11:18;;;;;;;6.60;3.10;;;;;;;;;;1723114;83;21099;-69
2022/09/08 07:13:53;;;;;;;6.47;3.60;;;;;;;;;;1722694;82;21126;-72
2022/09/08 07:16:29;;;;;;;6.60;3.33;;;;;;;;;;1723149;83;22061;-72
2022/09/08 07:19:05;;;;;;;6.22;3.52;;;;;;;;;;1723334;82;20982;-72
2022/09/08 07:21:42;;;;;;;6.17;3.40;;;;;;;;;;1721798;83;21116;-72
2022/09/08 07:24:10;;;;;;;5.97;3.20;;;;;;;;;;1720755;82;21037;-72
2022/09/08 07:26:38;;;;;;;7.67;3.02;;;;;;;;;;1722243;82;21020;-72
2022/09/08 07:29:06;;;;;;;8.03;3.08;;;;;;;;;;1722965;83;21044;-72
2022/09/08 07:31:33;;;;;;;5.17;3.20;;;;;;;;;;1722528;82;21085;-72
2022/09/08 07:34:02;;;;;;;6.22;3.52;;;;;;;;;;1723182;82;21076;-71
2022/09/08 07:36:47;;;;;;;3.95;2.67;;;;;;;;;;1724422;82;21673;-71
2022/09/08 07:39:24;;;;;;;8.15;2.55;;;;;;;;;;1722837;82;21059;-71
2022/09/08 07:41:53;;;;;;;8.60;2.67;;;;;;;;;;1723608;82;21511;-70
2022/09/08 07:44:18;;;;;;;5.67;2.45;;;;;;;;;;1731051;82;21563;-71
2022/09/08 07:46:52;;;;;;;3.50;2.05;;;;;;;;;;1723191;83;21100;-71
2022/09/08 07:49:20;;;;;;;3.55;2.30;;;;;;;;;;1723199;82;21071;-71
2022/09/08 07:51:58;;;;;;;6.03;3.00;;;;;;;;;;1723289;82;21037;-71
2022/09/08 07:54:41;;;;;;;4.35;2.83;;;;;;;;;;1724152;82;22280;-72
2022/09/08 07:57:12;;;;;;;4.17;2.70;;;;;;;;;;1635617;87;21069;-71
2022/09/08 07:59:43;;;;;;;6.25;2.95;;;;;;;;;;1672860;84;21100;-71
2022/09/08 08:02:11;;;;;;;3.00;2.33;;;;;;;;;;1661894;85;21107;-71
2022/09/08 08:04:41;;;;;;;4.05;2.40;;;;;;;;;;1665727;85;21040;-71
2022/09/08 08:07:10;;;;;;;6.78;2.85;;;;;;;;;;1712213;82;21065;-71
2022/09/08 08:09:38;;;;;;;6.55;2.80;;;;;;;;;;1709984;82;21114;-70
2022/09/08 08:12:06;;;;;;;6.30;2.92;;;;;;;;;;1663918;85;21582;-71
2022/09/08 08:14:35;;;;;;;5.62;2.87;;;;;;;;;;1688151;84;21358;-70
2022/09/08 08:17:03;;;;;;;6.65;2.95;;;;;;;;;;1710272;82;21126;-71
2022/09/08 08:19:31;;;;;;;5.95;3.02;;;;;;;;;;1719916;82;21585;-71
2022/09/08 08:21:59;;;;;;;4.70;2.30;;;;;;;;;;1712033;83;21045;-71
2022/09/08 08:24:27;;;;;;;3.62;2.40;;;;;;;;;;1715856;82;21023;-70
2022/09/08 08:27:00;;;;;;;4.65;2.45;;;;;;;;;;1730422;81;21286;-71
2022/09/08 08:29:45;;;;;;;4.62;2.52;;;;;;;;;;1717869;83;21057;-70
2022/09/08 08:32:16;;;;;;;4.40;2.70;;;;;;;;;;1717701;83;21636;-71
2022/09/08 08:34:47;;;;;;;4.78;2.90;;;;;;;;;;1694861;83;21113;-70
2022/09/08 08:37:17;;;;;;;4.33;2.33;;;;;;;;;;1715851;82;21594;-70
2022/09/08 08:39:45;;;;;;;9.00;3.27;;;;;;;;;;1715673;82;21073;-71
2022/09/08 08:42:29;;;;;;;5.37;2.70;;;;;;;;;;1717976;83;21524;-70
2022/09/08 08:45:06;;;;;;;7.65;2.70;;;;;;;;;;1722876;82;21086;-71
2022/09/08 08:47:35;;;;;;;4.85;2.60;;;;;;;;;;1730024;82;21108;-71
2022/09/08 08:50:12;;;;;;;8.38;3.58;;;;;;;;;;1726419;82;21080;-71
2022/09/08 08:52:50;;;;;;;5.33;3.05;;;;;;;;;;1729149;82;21096;-71
2022/09/08 08:55:27;;;;;;;5.45;2.98;;;;;;;;;;1715791;82;21094;-71
2022/09/08 08:58:05;;;;;;;6.15;2.90;;;;;;;;;;1722848;82;21082;-70
2022/09/08 09:00:34;;;;;;;4.28;2.60;;;;;;;;;;1701175;82;21112;-72
2022/09/08 09:03:04;;;;;;;6.67;3.42;;;;;;;;;;1725871;82;21136;-72
2022/09/08 09:05:36;;;;;;;7.12;3.37;;;;;;;;;;1719891;82;21569;-71
2022/09/08 09:08:13;;;;;;;4.72;3.08;;;;;;;;;;1713518;82;21037;-72
2022/09/08 09:11:00;;;;;;;7.55;3.00;;;;;;;;;;1713462;83;21111;-71
2022/09/08 09:13:37;;;;;;;4.03;2.80;;;;;;;;;;1718216;83;21098;-71
2022/09/08 09:16:22;;;;;;;6.25;3.10;;;;;;;;;;1714672;82;21084;-68
2022/09/08 09:18:56;;;;;;;5.45;2.90;;;;;;;;;;1728727;82;21552;-68
2022/09/08 09:21:26;;;;;;;4.20;2.77;;;;;;;;;;1664914;82;21061;-68
2022/09/08 09:23:54;;;;;;;4.80;2.60;;;;;;;;;;1715250;82;21041;-67
2022/09/08 09:26:21;;;;;;;6.28;3.30;;;;;;;;;;1715474;81;21064;-68
2022/09/08 09:28:49;;;;;;;5.33;2.77;;;;;;;;;;1719552;82;21542;-68
2022/09/08 09:31:17;;;;;;;4.37;2.95;;;;;;;;;;1699887;82;21010;-68
2022/09/08 09:33:55;;;;;;;5.22;3.10;;;;;;;;;;1705874;83;21037;-68
2022/09/08 09:36:29;;;;;;;9.38;3.55;;;;;;;;;;1710680;83;21078;-68
2022/09/08 09:39:03;;;;;;;8.25;3.40;;;;;;;;;;1720635;82;21085;-68
2022/09/08 09:41:34;;;;;;;6.12;3.00;;;;;;;;;;1705885;82;21133;-67
2022/09/08 09:44:05;;;;;;;7.58;3.65;;;;;;;;;;1711927;84;21073;-67
2022/09/08 09:46:42;;;;;;;5.95;3.20;;;;;;;;;;1714498;83;21031;-66
2022/09/08 09:49:27;;;;;;;5.45;3.27;;;;;;;;;;1710662;83;21092;-67
2022/09/08 09:52:12;;;;;;;6.30;3.67;;;;;;;;;;1709936;84;21100;-66
2022/09/08 09:54:44;;;;;;;5.85;3.60;;;;;;;;;;1710464;82;21014;-67
2022/09/08 09:57:18;;;;;;;5.90;3.35;;;;;;;;;;1677843;83;21607;-68
2022/09/08 09:59:49;;;;;;;4.50;3.08;;;;;;;;;;1716912;83;21487;-67
2022/09/08 10:02:35;;;;;;;5.47;2.90;;;;;;;;;;1712354;84;21065;-67
2022/09/08 10:05:23;;;;;;;7.15;3.10;;;;;;;;;;1712185;83;21666;-67
2022/09/08 10:07:51;;;;;;;6.25;3.05;;;;;;;;;;1716079;82;21072;-67
2022/09/08 10:10:29;;;;;;;8.30;3.55;;;;;;;;;;1727717;81;21042;-67
2022/09/08 10:13:00;;;;;;;5.78;3.20;;;;;;;;;;1731002;82;21117;-67
2022/09/08 10:15:44;;;;;;;9.28;3.70;;;;;;;;;;1730136;82;21581;-67
2022/09/08 10:18:16;;;;;;;8.10;3.83;;;;;;;;;;1730725;82;21049;-67
2022/09/08 10:21:02;;;;;;;7.47;4.10;;;;;;;;;;1730367;83;21101;-68
2022/09/08 10:23:40;;;;;;;5.87;4.10;;;;;;;;;;1731039;82;21083;-68
2022/09/08 10:26:13;;;;;;;6.45;4.42;;;;;;;;;;1733045;81;21067;-68
2022/09/08 10:28:41;;;;;;;8.68;4.22;;;;;;;;;;1729755;81;21024;-68
2022/09/08 10:31:22;;;;;;;6.12;3.67;;;;;;;;;;1732089;81;21127;-67
2022/09/08 10:33:50;;;;;;;9.83;3.90;;;;;;;;;;1725017;83;21074;-66
2022/09/08 10:36:16;;;;;;;7.33;4.03;;;;;;;;;;1724813;83;21044;-67
2022/09/08 10:39:01;;;;;;;6.08;3.83;;;;;;;;;;1730988;81;21034;-68
2022/09/08 10:41:30;;;;;;;7.80;3.87;;;;;;;;;;1721466;83;21040;-68
2022/09/08 10:44:04;;;;;;;6.78;3.60;;;;;;;;;;1728369;83;21067;-67
2022/09/08 10:46:32;;;;;;;9.60;3.90;;;;;;;;;;1726813;82;21541;-65
2022/09/08 10:49:12;;;;;;;7.90;3.65;;;;;;;;;;1726561;82;21079;-65
2022/09/08 10:51:40;;;;;;;5.97;3.90;;;;;;;;;;1729109;82;21060;-65
2022/09/08 10:54:17;;;;;;;8.50;4.00;;;;;;;;;;1732837;81;21071;-65
2022/09/08 10:56:45;;;;;;;7.28;3.60;;;;;;;;;;1719783;81;21024;-64
2022/09/08 10:59:28;;;;;;;7.35;3.67;;;;;;;;;;1731151;82;21520;-64
2022/09/08 11:02:08;;;;;;;6.08;3.50;;;;;;;;;;1715237;81;21017;-64
2022/09/08 11:04:42;;;;;;;6.97;3.83;;;;;;;;;;1730698;81;21063;-65
2022/09/08 11:07:27;;;;;;;6.70;3.70;;;;;;;;;;1726691;81;21115;-64
2022/09/08 11:09:59;;;;;;;5.90;3.80;;;;;;;;;;1730873;81;21096;-63
2022/09/08 11:12:33;;;;;;;7.00;3.62;;;;;;;;;;1732358;81;21099;-65
2022/09/08 11:15:05;;;;;;;7.00;3.80;;;;;;;;;;1731034;82;21579;-66
2022/09/08 11:17:32;;;;;;;;;;;;;;;;;;1729118;82;21052;-65
2022/09/08 11:20:10;;;;;;;5.35;3.52;;;;;;;;;;1733380;81;20142;-63
2022/09/08 11:22:54;;;;;;;8.23;4.10;;;;;;;;;;1733538;82;21063;-64
2022/09/08 11:25:28;;;;;;;9.88;4.20;;;;;;;;;;1727534;82;21500;-64
2022/09/08 11:28:13;;;;;;;10.15;5.12;;;;;;;;;;1733291;82;21024;-64
2022/09/08 11:30:44;;;;;;;7.70;5.03;;;;;;;;;;1733843;82;21103;-65
2022/09/08 11:33:15;;;;;;;5.97;4.17;;;;;;;;;;1731275;82;22026;-65
2022/09/08 11:35:46;;;;;;;8.68;4.65;;;;;;;;;;1729806;82;21049;-64
2022/09/08 11:38:24;;;;;;;6.70;4.72;;;;;;;;;;1730409;83;21527;-64
2022/09/08 11:40:52;;;;;;;8.98;4.05;;;;;;;;;;1729583;82;21602;-65
2022/09/08 11:43:23;;;;;;;8.83;4.40;;;;;;;;;;1730132;82;21108;-64
2022/09/08 11:46:08;;;;;;;9.03;4.37;;;;;;;;;;1729319;81;21058;-64
2022/09/08 11:48:43;;;;;;;9.43;4.45;;;;;;;;;;1724114;81;21561;-65
2022/09/08 11:51:11;;;;;;;9.55;4.15;;;;;;;;;;1730456;82;21051;-65
2022/09/08 11:53:41;;;;;;;6.95;4.10;;;;;;;;;;1735081;82;21060;-64
2022/09/08 11:56:11;;;;;;;5.78;3.65;;;;;;;;;;1732780;81;21033;-65
2022/09/08 11:58:38;;;;;;;8.25;4.37;;;;;;;;;;1729958;81;21072;-65
2022/09/08 12:01:10;;;;;;;8.88;4.45;;;;;;;;;;1742241;82;21514;-65
2022/09/08 12:03:43;;;;;;;9.60;4.40;;;;;;;;;;1738383;82;21511;-65
2022/09/08 12:06:17;;;;;;;9.78;3.90;;;;;;;;;;1731136;82;21715;-66
2022/09/08 12:08:48;;;;;;;6.70;4.65;;;;;;;;;;1732407;82;21071;-66
2022/09/08 12:11:19;;;;;;;7.30;4.30;;;;;;;;;;1730345;81;21705;-65
2022/09/08 12:13:47;;;;;;;7.12;4.22;;;;;;;;;;1726398;81;21139;-66
2022/09/08 12:16:30;;;;;;;7.28;5.08;;;;;;;;;;1730815;82;21176;-65
2022/09/08 12:19:08;;;;;;;9.68;4.35;;;;;;;;;;1734312;81;21135;-66
2022/09/08 12:21:48;;;;;;;8.00;4.65;;;;;;;;;;1672945;84;21137;-67
2022/09/08 12:24:16;;;;;;;8.03;4.60;;;;;;;;;;1671477;84;21492;-67
2022/09/08 12:26:50;;;;;;;6.72;4.50;;;;;;;;;;1671156;84;21526;-69
2022/09/08 12:29:21;;;;;;;7.55;4.67;;;;;;;;;;1688219;84;21550;-66
2022/09/08 12:31:58;;;;;;;9.05;5.95;;;;;;;;;;1657755;85;21084;-66
2022/09/08 12:34:29;;;;;;;10.18;6.00;;;;;;;;;;1702785;83;21555;-66
2022/09/08 12:36:57;;;;;;;10.85;5.62;;;;;;;;;;1682049;84;21111;-67
2022/09/08 12:39:24;;;;;;;10.23;6.20;;;;;;;;;;1693660;83;21099;-66
2022/09/08 12:41:54;;;;;;;12.00;5.90;;;;;;;;;;1697554;83;21526;-66
2022/09/08 12:44:31;;;;;;;14.78;6.65;;;;;;;;;;1700416;83;21068;-66
2022/09/08 12:47:17;;;;;;;10.38;6.35;;;;;;;;;;1698174;83;21092;-66
2022/09/08 12:49:48;;;;;;;14.80;6.15;;;;;;;;;;1680998;84;21202;-65
2022/09/08 12:52:19;;;;;;;15.30;6.53;;;;;;;;;;1688609;84;21067;-66
2022/09/08 12:54:47;;;;;;;11.63;7.00;;;;;;;;;;1665525;85;21678;-63
2022/09/08 12:57:15;;;;;;;12.15;6.72;;;;;;;;;;1675668;85;21126;-65
2022/09/08 12:59:48;;;;;;;10.95;6.37;;;;;;;;;;1671440;85;20996;-64
2022/09/08 13:02:25;;;;;;;13.35;6.67;;;;;;;;;;1686726;85;21094;-64
2022/09/08 13:04:53;;;;;;;11.75;6.83;;;;;;;;;;1681093;85;21024;-64
2022/09/08 13:07:27;;;;;;;11.85;6.60;;;;;;;;;;1691050;84;21173;-64
2022/09/08 13:10:11;;;;;;;10.85;6.70;;;;;;;;;;1694572;83;21606;-64
2022/09/08 13:12:57;;;;;;;11.15;7.25;;;;;;;;;;1682512;84;21096;-65
2022/09/08 13:15:27;;;;;;;12.45;7.05;;;;;;;;;;1677179;84;21012;-64
2022/09/08 13:17:55;;;;;;;11.80;7.28;;;;;;;;;;1689171;84;21057;-65
2022/09/08 13:20:24;;;;;;;10.82;7.12;;;;;;;;;;1708117;82;21064;-64
2022/09/08 13:36:39;;;;;;;16.73;7.05;;;;;;;;;;1801720;79;22976;-65
2022/09/08 13:39:20;;;;;;;9.65;5.90;;;;;;;;;;1761047;80;21029;-65
2022/09/08 13:41:48;;;;;;;10.48;6.00;;;;;;;;;;1769006;80;21551;-65
2022/09/08 13:44:33;;;;;;;9.73;5.92;;;;;;;;;;1757812;80;21048;-65
2022/09/08 13:47:10;;;;;;;11.53;7.53;;;;;;;;;;1744132;80;21060;-64
2022/09/08 13:49:47;;;;;;;13.50;6.75;;;;;;;;;;1755335;81;21103;-64
2022/09/08 13:52:18;;;;;;;10.93;6.83;;;;;;;;;;1755304;81;21523;-65
2022/09/08 13:54:46;;;;;;;10.80;6.55;;;;;;;;;;1755437;82;21040;-64
2022/09/08 13:57:15;;;;;;;13.75;7.42;;;;;;;;;;1754823;80;21004;-65
2022/09/08 13:59:48;;;;;;;12.60;7.58;;;;;;;;;;1695122;84;21057;-66
2022/09/08 14:02:17;;;;;;;17.00;7.35;;;;;;;;;;1695425;84;21209;-66
2022/09/08 14:04:44;;;;;;;11.45;7.58;;;;;;;;;;1693824;85;21084;-65
2022/09/08 14:07:13;;;;;;;12.47;6.97;;;;;;;;;;1684145;83;21111;-65
2022/09/08 14:09:41;;;;;;;9.00;6.22;;;;;;;;;;1709380;83;21036;-66
2022/09/08 14:12:20;;;;;;;12.28;7.30;;;;;;;;;;1680015;84;21104;-65
2022/09/08 14:15:00;;;;;;;14.00;7.15;;;;;;;;;;1702371;83;21055;-65
2022/09/08 14:17:31;;;;;;;13.88;6.62;;;;;;;;;;1697678;84;21057;-65
2022/09/08 14:20:05;;;;;;;29.87;7.53;;;;;;;;;;1689314;84;21044;-66
2022/09/08 14:22:45;;;;;;;12.30;5.50;;;;;;;;;;1675741;83;21543;-65
2022/09/08 14:25:22;;;;;;;10.60;6.15;;;;;;;;;;1702091;83;21143;-66
2022/09/08 14:28:09;;;;;;;7.53;5.75;;;;;;;;;;1719769;83;21064;-65
2022/09/08 14:30:50;;;;;;;11.10;5.65;;;;;;;;;;1705043;83;22297;-64
2022/09/08 14:33:30;;;;;;;10.58;5.90;;;;;;;;;;1683796;83;21111;-64
2022/09/08 14:35:57;;;;;;;12.30;7.03;;;;;;;;;;1691173;84;21057;-65
2022/09/08 14:38:31;;;;;;;11.45;7.22;;;;;;;;;;1689670;84;21469;-65
2022/09/08 14:41:08;;;;;;;14.47;7.70;;;;;;;;;;1691955;84;20994;-66
2022/09/08 14:43:36;;;;;;;14.90;7.33;;;;;;;;;;1703127;84;21445;-66
2022/09/08 14:46:16;;;;;;;14.98;8.08;;;;;;;;;;1704460;84;21015;-66
2022/09/08 14:49:00;;;;;;;12.53;7.80;;;;;;;;;;1692270;84;21591;-66
2022/09/08 14:51:34;;;;;;;12.85;8.13;;;;;;;;;;1705330;84;21005;-66
2022/09/08 14:54:05;;;;;;;12.53;7.40;;;;;;;;;;1706529;84;20962;-65
2022/09/08 14:56:40;;;;;;;11.35;7.15;;;;;;;;;;1706153;84;21014;-65
2022/09/08 14:59:17;;;;;;;13.28;7.35;;;;;;;;;;1706375;84;21061;-65
2022/09/08 15:01:44;;;;;;;11.28;7.12;;;;;;;;;;1677807;85;21493;-66
2022/09/08 15:04:15;;;;;;;12.00;7.87;;;;;;;;;;1698734;84;21057;-66
2022/09/08 15:06:49;;;;;;;10.68;6.60;;;;;;;;;;1706097;84;21049;-65
2022/09/08 15:09:22;;;;;;;13.03;8.03;;;;;;;;;;1701015;84;21041;-65
2022/09/08 15:11:54;;;;;;;13.30;7.78;;;;;;;;;;1704313;84;21057;-64
2022/09/08 15:14:30;;;;;;;11.53;6.75;;;;;;;;;;1706144;84;21077;-65
2022/09/08 15:17:00;;;;;;;12.82;7.72;;;;;;;;;;1706442;84;21057;-66
2022/09/08 15:19:28;;;;;;;14.45;6.97;;;;;;;;;;1706704;84;21010;-66
2022/09/08 15:21:55;;;;;;;13.95;7.05;;;;;;;;;;1679476;84;21069;-66